createdAt,value
2022-08-25T00:00:06.466Z,94170.75
2022-08-25T00:01:24.187Z,94174.34
2022-08-25T00:02:31.053Z,94173.64
2022-08-25T00:03:39.787Z,94169.34
2022-08-25T00:04:53.728Z,94164.59
2022-08-25T00:05:57.359Z,94166.93
2022-08-25T00:07:04.245Z,94163.96
2022-08-25T00:08:08.817Z,94160.41
2022-08-25T00:09:22.938Z,94160.67
2022-08-25T00:10:26.658Z,94157.61
2022-08-25T00:11:34.565Z,94162.75
2022-08-25T00:12:40.425Z,94165.03
2022-08-25T00:13:49.793Z,94160.30
2022-08-25T00:14:53.392Z,94161.23
2022-08-25T00:15:56.876Z,94162.33
2022-08-25T00:17:00.383Z,94160.94
2022-08-25T00:18:16.950Z,94160.31
2022-08-25T00:19:27.197Z,94159.25
2022-08-25T00:20:32.437Z,94157.70
2022-08-25T00:21:36.122Z,94158.63
2022-08-25T00:22:39.687Z,94158.85
2022-08-25T00:23:43.893Z,94157.81
2022-08-25T00:24:49.268Z,94164.64
2022-08-25T00:25:52.420Z,94162.27
2022-08-25T00:26:58.221Z,94164.29
2022-08-25T00:28:05.201Z,94166.77
2022-08-25T00:29:11.710Z,94164.88
2022-08-25T00:30:16.872Z,94163.09
2022-08-25T00:31:23.653Z,94164.31
2022-08-25T00:32:41.133Z,94162.46
2022-08-25T00:33:46.366Z,94161.67
2022-08-25T00:34:49.406Z,94158.97
2022-08-25T00:35:52.999Z,94161.66
2022-08-25T00:36:56.919Z,94147.60
2022-08-25T00:37:59.924Z,94160.42
2022-08-25T00:39:04.447Z,94160.52
2022-08-25T00:40:08.369Z,94155.58
2022-08-25T00:41:16.343Z,94153.28
2022-08-25T00:42:21.183Z,94153.98
2022-08-25T00:43:25.409Z,94153.61
2022-08-25T00:44:32.252Z,94150.33
2022-08-25T00:45:35.737Z,94153.05
2022-08-25T00:46:43.963Z,94151.55
2022-08-25T00:47:47.301Z,94152.05
2022-08-25T00:48:59.496Z,94149.65
2022-08-25T00:50:06.840Z,94151.72
2022-08-25T00:51:17.136Z,94152.45
2022-08-25T00:52:25.420Z,94152.35
2022-08-25T00:53:30.353Z,94154.94
2022-08-25T00:54:46.084Z,94152.45
2022-08-25T00:55:49.535Z,94152.33
2022-08-25T00:56:52.583Z,94146.87
2022-08-25T00:58:00.605Z,94149.20
2022-08-25T00:59:06.196Z,94147.77
2022-08-25T01:00:17.198Z,94151.27
2022-08-25T01:01:21.134Z,94153.05
2022-08-25T01:02:24.270Z,94148.76
2022-08-25T01:03:31.614Z,94156.20
2022-08-25T01:04:39.532Z,94157.44
2022-08-25T01:05:44.306Z,94161.14
2022-08-25T01:06:49.353Z,94163.34
2022-08-25T01:07:53.053Z,94160.45
2022-08-25T01:09:02.101Z,94163.11
2022-08-25T01:10:08.036Z,94159.54
2022-08-25T01:11:13.326Z,94157.52
2022-08-25T01:12:16.738Z,94160.19
2022-08-25T01:13:25.935Z,94163.13
2022-08-25T01:14:31.703Z,94159.33
2022-08-25T01:15:35.312Z,94162.83
2022-08-25T01:16:42.569Z,94160.45
2022-08-25T01:17:50.196Z,94160.09
2022-08-25T01:19:00.801Z,94161.16
2022-08-25T01:20:05.360Z,94158.48
2022-08-25T01:21:08.536Z,94152.72
2022-08-25T01:22:12.597Z,94158.13
2022-08-25T01:23:27.832Z,94153.60
2022-08-25T01:24:47.220Z,94159.08
2022-08-25T01:26:09.246Z,94156.89
2022-08-25T01:27:12.579Z,94157.11
2022-08-25T01:28:16.239Z,94156.70
2022-08-25T01:29:22.463Z,94153.77
2022-08-25T01:30:26.253Z,94152.16
2022-08-25T01:31:30.404Z,94152.61
2022-08-25T01:32:35.114Z,94150.89
2022-08-25T01:33:38.187Z,94149.04
2022-08-25T01:34:45.233Z,94148.11
2022-08-25T01:35:48.277Z,94149.98
2022-08-25T01:36:51.341Z,94147.31
2022-08-25T01:37:57.326Z,94144.70
2022-08-25T01:39:00.402Z,94142.63
2022-08-25T01:40:05.503Z,94140.39
2022-08-25T01:41:08.577Z,94139.44
2022-08-25T01:42:37.943Z,94139.99
2022-08-25T01:43:41.111Z,94135.91
2022-08-25T01:44:46.769Z,94133.04
2022-08-25T01:45:50.046Z,94130.52
2022-08-25T01:46:54.888Z,94129.77
2022-08-25T01:47:58.011Z,94129.65
2022-08-25T01:49:06.603Z,94128.89
2022-08-25T01:50:17.627Z,94125.28
2022-08-25T01:51:25.002Z,94124.31
2022-08-25T01:52:46.449Z,94121.81
2022-08-25T01:53:51.117Z,94122.19
2022-08-25T01:54:57.196Z,94119.80
2022-08-25T01:56:03.819Z,94122.91
2022-08-25T01:57:07.303Z,94120.13
2022-08-25T01:58:10.349Z,94120.50
2022-08-25T01:59:16.665Z,94125.27
2022-08-25T02:00:26.870Z,94122.95
2022-08-25T02:01:30.699Z,94122.71
2022-08-25T02:02:33.903Z,94122.13
2022-08-25T02:03:42.319Z,94121.91
2022-08-25T02:04:46.072Z,94123.79
2022-08-25T02:05:49.495Z,94130.79
2022-08-25T02:06:52.586Z,94127.39
2022-08-25T02:07:55.771Z,94128.23
2022-08-25T02:09:01.702Z,94128.12
2022-08-25T02:10:06.763Z,94124.23
2022-08-25T02:11:15.927Z,94125.89
2022-08-25T02:12:19.253Z,94125.72
2022-08-25T02:13:27.045Z,94126.62
2022-08-25T02:14:36.031Z,94121.99
2022-08-25T02:15:45.051Z,94118.70
2022-08-25T02:16:51.224Z,94119.08
2022-08-25T02:17:54.307Z,94118.45
2022-08-25T02:18:59.352Z,94119.67
2022-08-25T02:20:05.721Z,94117.82
2022-08-25T02:21:09.356Z,94117.16
2022-08-25T02:22:12.400Z,94121.42
2022-08-25T02:23:16.306Z,94119.82
2022-08-25T02:24:19.739Z,94121.54
2022-08-25T02:25:22.958Z,94120.64
2022-08-25T02:26:26.454Z,94118.79
2022-08-25T02:27:29.777Z,94117.43
2022-08-25T02:28:37.635Z,94115.96
2022-08-25T02:29:41.285Z,94116.92
2022-08-25T02:30:46.272Z,94113.23
2022-08-25T02:31:49.522Z,94115.05
2022-08-25T02:32:52.549Z,94113.27
2022-08-25T02:33:57.307Z,94109.98
2022-08-25T02:35:00.396Z,94109.23
2022-08-25T02:36:03.998Z,94109.89
2022-08-25T02:37:08.381Z,94105.35
2022-08-25T02:38:11.453Z,94105.96
2022-08-25T02:39:14.469Z,94105.46
2022-08-25T02:40:17.735Z,94108.27
2022-08-25T02:41:30.905Z,94105.20
2022-08-25T02:42:34.636Z,94105.86
2022-08-25T02:43:37.791Z,94109.05
2022-08-25T02:44:41.305Z,94106.02
2022-08-25T02:45:45.039Z,94104.81
2022-08-25T02:46:48.749Z,94107.30
2022-08-25T02:47:51.847Z,94104.06
2022-08-25T02:48:55.546Z,94103.58
2022-08-25T02:49:58.606Z,94104.49
2022-08-25T02:51:02.239Z,94105.60
2022-08-25T02:52:08.611Z,94102.52
2022-08-25T02:53:11.576Z,94105.18
2022-08-25T02:54:16.410Z,94103.69
2022-08-25T02:55:19.856Z,94102.05
2022-08-25T02:56:24.579Z,94101.04
2022-08-25T02:57:27.610Z,94095.20
2022-08-25T02:58:30.617Z,94097.91
2022-08-25T02:59:36.826Z,94094.77
2022-08-25T03:00:39.847Z,94093.03
2022-08-25T03:01:43.109Z,94093.90
2022-08-25T03:02:47.485Z,94090.78
2022-08-25T03:03:52.330Z,94087.02
2022-08-25T03:04:56.179Z,94092.52
2022-08-25T03:06:00.219Z,94094.11
2022-08-25T03:07:03.928Z,94093.80
2022-08-25T03:08:08.101Z,94095.19
2022-08-25T03:09:12.096Z,94097.53
2022-08-25T03:10:18.650Z,94097.54
2022-08-25T03:11:22.426Z,94096.86
2022-08-25T03:12:25.568Z,94097.48
2022-08-25T03:13:28.792Z,94093.67
2022-08-25T03:14:31.866Z,94094.84
2022-08-25T03:15:38.003Z,94098.08
2022-08-25T03:16:42.975Z,94100.80
2022-08-25T03:17:53.086Z,94101.25
2022-08-25T03:18:56.671Z,94103.98
2022-08-25T03:20:00.674Z,94108.17
2022-08-25T03:21:05.116Z,94106.52
2022-08-25T03:22:08.240Z,94110.22
2022-08-25T03:23:11.494Z,94109.95
2022-08-25T03:24:14.590Z,94110.80
2022-08-25T03:25:36.645Z,94099.64
2022-08-25T03:26:56.098Z,94104.77
2022-08-25T03:27:59.615Z,94105.66
2022-08-25T03:29:06.606Z,94106.77
2022-08-25T03:30:10.893Z,94107.61
2022-08-25T03:31:14.000Z,94100.28
2022-08-25T03:32:17.019Z,94103.35
2022-08-25T03:33:23.491Z,94106.00
2022-08-25T03:34:38.419Z,94102.23
2022-08-25T03:35:42.123Z,94099.84
2022-08-25T03:36:49.431Z,94100.77
2022-08-25T03:37:56.888Z,94099.98
2022-08-25T03:39:00.346Z,94096.51
2022-08-25T03:40:07.940Z,94095.11
2022-08-25T03:41:25.589Z,94100.89
2022-08-25T03:42:31.184Z,94100.48
2022-08-25T03:43:34.212Z,94101.05
2022-08-25T03:44:40.370Z,94101.06
2022-08-25T03:45:46.045Z,94096.08
2022-08-25T03:46:52.057Z,94100.07
2022-08-25T03:47:55.691Z,94095.94
2022-08-25T03:49:02.109Z,94094.39
2022-08-25T03:50:08.473Z,94093.88
2022-08-25T03:51:11.632Z,94093.69
2022-08-25T03:52:14.655Z,94092.73
2022-08-25T03:53:17.918Z,94089.63
2022-08-25T03:54:25.398Z,94088.07
2022-08-25T03:55:28.855Z,94086.98
2022-08-25T03:56:34.206Z,94086.45
2022-08-25T03:57:37.286Z,94086.16
2022-08-25T03:58:40.286Z,94086.27
2022-08-25T03:59:43.864Z,94085.14
2022-08-25T04:00:48.994Z,94080.95
2022-08-25T04:01:55.096Z,94081.40
2022-08-25T04:02:58.666Z,94083.73
2022-08-25T04:04:01.749Z,94087.13
2022-08-25T04:05:05.585Z,94082.23
2022-08-25T04:06:09.025Z,94081.30
2022-08-25T04:07:12.086Z,94077.16
2022-08-25T04:08:15.183Z,94077.23
2022-08-25T04:09:18.286Z,94076.55
2022-08-25T04:10:21.366Z,94071.77
2022-08-25T04:11:26.132Z,94075.56
2022-08-25T04:12:29.144Z,94073.55
2022-08-25T04:13:33.640Z,94071.55
2022-08-25T04:14:37.187Z,94076.83
2022-08-25T04:15:45.240Z,94074.19
2022-08-25T04:16:48.572Z,94076.12
2022-08-25T04:17:51.963Z,94073.97
2022-08-25T04:18:58.676Z,94074.65
2022-08-25T04:20:02.608Z,94080.18
2022-08-25T04:21:09.289Z,94078.44
2022-08-25T04:22:13.245Z,94079.73
2022-08-25T04:23:16.839Z,94079.82
2022-08-25T04:24:20.791Z,94078.30
2022-08-25T04:25:23.836Z,94074.52
2022-08-25T04:26:37.366Z,94074.02
2022-08-25T04:27:40.998Z,94071.70
2022-08-25T04:28:44.080Z,94069.83
2022-08-25T04:29:47.322Z,94070.23
2022-08-25T04:30:52.077Z,94071.24
2022-08-25T04:31:55.775Z,94069.63
2022-08-25T04:32:58.972Z,94068.61
2022-08-25T04:34:04.145Z,94069.05
2022-08-25T04:35:17.976Z,94072.92
2022-08-25T04:36:22.142Z,94072.22
2022-08-25T04:37:25.131Z,94074.89
2022-08-25T04:38:28.285Z,94075.79
2022-08-25T04:39:34.479Z,94076.18
2022-08-25T04:40:37.662Z,94076.33
2022-08-25T04:41:43.569Z,94076.84
2022-08-25T04:42:48.060Z,94076.63
2022-08-25T04:43:52.511Z,94073.45
2022-08-25T04:44:55.965Z,94072.77
2022-08-25T04:45:59.552Z,94071.79
2022-08-25T04:47:03.156Z,94071.55
2022-08-25T04:48:08.727Z,94064.02
2022-08-25T04:49:12.099Z,94064.42
2022-08-25T04:50:15.216Z,94066.44
2022-08-25T04:51:24.391Z,94067.95
2022-08-25T04:52:27.504Z,94067.23
2022-08-25T04:53:30.485Z,94067.11
2022-08-25T04:54:37.225Z,94066.96
2022-08-25T04:55:46.042Z,94070.80
2022-08-25T04:56:54.530Z,94068.85
2022-08-25T04:58:01.584Z,94068.98
2022-08-25T04:59:08.096Z,94070.17
2022-08-25T05:00:12.251Z,94071.00
2022-08-25T05:01:18.721Z,94071.52
2022-08-25T05:02:25.387Z,94074.33
2022-08-25T05:03:28.501Z,94077.73
2022-08-25T05:04:32.874Z,94082.76
2022-08-25T05:05:38.811Z,94083.33
2022-08-25T05:06:43.062Z,94081.93
2022-08-25T05:07:48.129Z,94088.73
2022-08-25T05:08:51.706Z,94086.73
2022-08-25T05:09:54.901Z,94088.45
2022-08-25T05:10:58.562Z,94088.45
2022-08-25T05:12:03.374Z,94089.05
2022-08-25T05:13:06.808Z,94087.05
2022-08-25T05:14:12.314Z,94084.07
2022-08-25T05:15:34.094Z,94080.52
2022-08-25T05:16:37.796Z,94082.36
2022-08-25T05:17:40.912Z,94084.61
2022-08-25T05:18:45.485Z,94083.94
2022-08-25T05:19:48.632Z,94083.09
2022-08-25T05:20:57.301Z,94081.15
2022-08-25T05:22:00.461Z,94079.77
2022-08-25T05:23:04.475Z,94082.92
2022-08-25T05:24:08.407Z,94080.62
2022-08-25T05:25:12.122Z,94079.17
2022-08-25T05:26:20.304Z,94078.54
2022-08-25T05:27:24.070Z,94079.33
2022-08-25T05:28:27.065Z,94076.77
2022-08-25T05:29:30.309Z,94077.87
2022-08-25T05:30:33.335Z,94075.05
2022-08-25T05:31:41.743Z,94076.36
2022-08-25T05:32:46.495Z,94074.15
2022-08-25T05:33:50.941Z,94074.13
2022-08-25T05:34:54.646Z,94071.08
2022-08-25T05:35:59.351Z,94063.46
2022-08-25T05:37:08.195Z,94061.02
2022-08-25T05:38:15.789Z,94062.93
2022-08-25T05:39:20.377Z,94062.63
2022-08-25T05:40:25.569Z,94060.28
2022-08-25T05:41:34.310Z,94056.68
2022-08-25T05:42:40.359Z,94059.77
2022-08-25T05:43:48.413Z,94057.84
2022-08-25T05:44:52.354Z,94060.12
2022-08-25T05:45:58.614Z,94058.17
2022-08-25T05:47:03.374Z,94060.17
2022-08-25T05:48:12.185Z,94056.48
2022-08-25T05:49:18.910Z,94057.42
2022-08-25T05:50:25.692Z,94056.54
2022-08-25T05:51:29.927Z,94060.59
2022-08-25T05:52:42.965Z,94056.66
2022-08-25T05:53:51.852Z,94059.87
2022-08-25T05:54:57.375Z,94061.70
2022-08-25T05:56:01.296Z,94062.63
2022-08-25T05:57:06.297Z,94065.96
2022-08-25T05:58:10.338Z,94071.89
2022-08-25T05:59:20.140Z,94069.47
2022-08-25T06:00:24.372Z,94069.57
2022-08-25T06:01:55.741Z,94070.18
2022-08-25T06:03:00.791Z,94066.10
2022-08-25T06:04:11.902Z,94071.07
2022-08-25T06:05:20.123Z,94069.22
2022-08-25T06:06:28.747Z,94066.25
2022-08-25T06:07:34.042Z,94068.54
2022-08-25T06:08:50.685Z,94065.27
2022-08-25T06:10:02.273Z,94066.00
2022-08-25T06:11:14.368Z,94064.92
2022-08-25T06:12:32.978Z,94071.56
2022-08-25T06:13:48.299Z,94073.77
2022-08-25T06:15:11.130Z,94074.03
2022-08-25T06:18:55.913Z,94073.23
2022-08-25T06:20:03.878Z,94075.30
2022-08-25T06:21:21.085Z,94069.54
2022-08-25T06:22:42.483Z,94069.11
2022-08-25T06:24:09.966Z,94071.86
2022-08-25T06:25:26.452Z,94072.78
2022-08-25T06:26:46.469Z,94074.88
2022-08-25T06:28:11.636Z,94075.89
2022-08-25T06:29:20.551Z,94078.48
2022-08-25T06:30:28.992Z,94074.94
2022-08-25T06:32:04.268Z,94075.32
2022-08-25T06:33:09.420Z,94078.46
2022-08-25T06:34:24.257Z,94079.81
2022-08-25T06:35:35.669Z,94078.40
2022-08-25T06:37:16.343Z,94078.23
2022-08-25T06:40:19.445Z,94080.52
2022-08-25T06:41:23.481Z,94081.71
2022-08-25T06:42:43.297Z,94081.21
2022-08-25T06:44:19.760Z,94082.78
2022-08-25T06:45:41.299Z,94083.44
2022-08-25T06:46:49.544Z,94086.33
2022-08-25T06:47:53.323Z,94087.73
2022-08-25T06:49:07.019Z,94088.11
2022-08-25T06:50:20.582Z,94088.23
2022-08-25T06:51:57.680Z,94091.26
2022-08-25T06:55:17.616Z,94093.12
2022-08-25T06:57:40.358Z,94090.23
2022-08-25T06:59:32.044Z,94092.73
2022-08-25T07:01:39.127Z,94092.98
2022-08-25T07:03:48.405Z,94094.92
2022-08-25T07:05:51.454Z,94098.00
2022-08-25T07:14:29.681Z,94090.35
2022-08-25T07:15:59.123Z,94083.33
2022-08-25T07:17:12.439Z,94079.29
2022-08-25T07:18:19.285Z,94080.48
2022-08-25T07:19:31.007Z,94084.77
2022-08-25T07:20:51.535Z,94081.54
2022-08-25T07:21:59.922Z,94086.23
2022-08-25T07:23:07.909Z,94088.46
2022-08-25T07:24:17.837Z,94088.27
2022-08-25T07:29:31.960Z,94085.67
2022-08-25T07:31:04.559Z,94087.95
2022-08-25T07:32:11.414Z,94085.27
2022-08-25T07:33:25.994Z,94086.21
2022-08-25T07:34:55.746Z,94085.58
2022-08-25T07:36:22.853Z,94088.39
2022-08-25T07:37:48.813Z,94091.96
2022-08-25T07:39:38.283Z,94091.79
2022-08-25T07:41:33.991Z,94089.41
2022-08-25T07:42:49.917Z,94086.98
2022-08-25T07:43:56.167Z,94087.27
2022-08-25T07:45:20.397Z,94087.52
2022-08-25T07:46:42.593Z,94087.59
2022-08-25T07:48:00.387Z,94086.40
2022-08-25T07:49:26.856Z,94086.79
2022-08-25T07:51:07.524Z,94086.92
2022-08-25T07:52:21.780Z,94072.62
2022-08-25T07:53:30.999Z,94079.84
2022-08-25T07:54:39.585Z,94084.64
2022-08-25T07:55:47.155Z,94088.77
2022-08-25T07:56:51.578Z,94086.11
2022-08-25T07:58:22.244Z,94087.11
2022-08-25T08:00:26.637Z,94094.11
2022-08-25T08:02:18.544Z,94094.84
2022-08-25T08:04:06.235Z,94099.50
2022-08-25T08:05:40.954Z,94097.36
2022-08-25T08:07:12.202Z,94095.60
2022-08-25T08:10:54.140Z,94090.00
2022-08-25T08:12:20.105Z,94086.02
2022-08-25T08:13:24.632Z,94088.98
2022-08-25T08:14:57.972Z,94088.23
2022-08-25T08:16:15.039Z,94094.27
2022-08-25T08:17:22.345Z,94098.95
2022-08-25T08:18:30.190Z,94099.73
2022-08-25T08:19:44.903Z,94102.34
2022-08-25T08:20:50.565Z,94096.81
2022-08-25T08:21:55.667Z,94099.77
2022-08-25T08:23:01.790Z,94097.04
2022-08-25T08:24:19.752Z,94101.59
2022-08-25T08:25:39.731Z,94101.38
2022-08-25T08:26:58.142Z,94103.11
2022-08-25T08:28:02.743Z,94101.27
2022-08-25T08:29:08.665Z,94100.93
2022-08-25T08:30:16.273Z,94097.05
2022-08-25T08:31:28.747Z,94097.53
2022-08-25T08:34:02.800Z,94097.56
2022-08-25T08:35:19.715Z,94099.04
2022-08-25T08:36:59.688Z,94096.22
2022-08-25T08:38:28.164Z,94092.63
2022-08-25T08:39:38.180Z,94093.77
2022-08-25T08:42:00.678Z,94088.13
2022-08-25T08:43:33.235Z,94089.27
2022-08-25T08:45:25.805Z,94086.84
2022-08-25T08:47:34.222Z,94085.98
2022-08-25T08:49:02.547Z,94089.64
2022-08-25T08:50:20.319Z,94086.67
2022-08-25T08:51:48.422Z,94084.44
2022-08-25T08:53:10.796Z,94081.61
2022-08-25T08:54:27.295Z,94086.44
2022-08-25T08:55:52.679Z,94082.30
2022-08-25T08:57:42.389Z,94081.29
2022-08-25T08:59:52.631Z,94084.22
2022-08-25T09:01:19.248Z,94083.33
2022-08-25T09:02:59.209Z,94079.62
2022-08-25T09:04:20.698Z,94083.69
2022-08-25T09:05:32.993Z,94082.95
2022-08-25T09:06:55.939Z,94081.79
2022-08-25T09:08:31.978Z,94082.11
2022-08-25T09:10:29.479Z,94083.10
2022-08-25T09:12:35.276Z,94081.80
2022-08-25T09:19:21.239Z,94076.23
2022-08-25T09:21:34.308Z,94081.09
2022-08-25T09:28:41.249Z,94075.29
2022-08-25T09:30:33.420Z,94068.61
2022-08-25T09:31:41.756Z,94066.67
2022-08-25T09:33:11.076Z,94068.82
2022-08-25T09:34:33.978Z,94068.16
2022-08-25T09:35:48.230Z,94068.98
2022-08-25T09:36:58.022Z,94069.31
2022-08-25T09:38:12.355Z,94070.17
2022-08-25T09:39:31.892Z,94072.49
2022-08-25T09:41:12.173Z,94073.23
2022-08-25T09:42:23.871Z,94068.56
2022-08-25T09:43:28.565Z,94070.11
2022-08-25T09:44:40.907Z,94066.96
2022-08-25T09:46:00.659Z,94069.85
2022-08-25T09:47:25.484Z,94066.89
2022-08-25T09:48:58.607Z,94065.78
2022-08-25T09:50:20.715Z,94064.33
2022-08-25T09:51:38.239Z,94062.27
2022-08-25T09:53:00.903Z,94058.38
2022-08-25T09:54:43.937Z,94050.25
2022-08-25T09:56:22.582Z,94050.40
2022-08-25T09:57:44.247Z,94051.35
2022-08-25T09:59:32.883Z,94053.46
2022-08-25T10:01:23.738Z,94053.50
2022-08-25T10:02:56.032Z,94053.23
2022-08-25T10:04:13.939Z,94049.73
2022-08-25T10:05:35.787Z,94054.04
2022-08-25T10:10:16.056Z,94050.38
2022-08-25T10:14:04.609Z,94043.11
2022-08-25T10:15:38.494Z,94036.75
2022-08-25T10:17:27.797Z,94042.10
2022-08-25T10:18:38.010Z,94038.63
2022-08-25T10:19:57.438Z,94041.84
2022-08-25T10:21:27.206Z,94039.08
2022-08-25T10:23:09.166Z,94046.85
2022-08-25T10:24:48.865Z,94041.09
2022-08-25T10:26:41.694Z,94039.47
2022-08-25T10:28:03.993Z,94038.33
2022-08-25T10:29:34.402Z,94038.83
2022-08-25T10:31:19.381Z,94038.86
2022-08-25T10:32:54.295Z,94033.63
2022-08-25T10:34:55.439Z,94032.61
2022-08-25T10:36:30.493Z,94034.84
2022-08-25T10:37:46.953Z,94036.26
2022-08-25T10:38:58.248Z,94039.31
2022-08-25T10:40:37.237Z,94034.59
2022-08-25T10:42:14.282Z,94035.34
2022-08-25T10:44:26.244Z,94029.08
2022-08-25T10:46:03.579Z,94032.77
2022-08-25T10:47:50.350Z,94026.73
2022-08-25T10:49:10.504Z,94025.61
2022-08-25T10:50:45.305Z,94020.63
2022-08-25T10:52:28.272Z,94021.33
2022-08-25T10:54:21.506Z,94023.23
2022-08-25T10:55:43.597Z,94019.64
2022-08-25T10:57:01.909Z,94023.05
2022-08-25T10:58:42.887Z,94021.63
2022-08-25T10:59:52.238Z,94021.69
2022-08-25T11:01:10.120Z,94023.62
2022-08-25T11:02:20.412Z,94017.98
2022-08-25T11:03:59.202Z,94015.67
2022-08-25T11:05:40.769Z,94013.45
2022-08-25T11:06:54.573Z,94010.58
2022-08-25T11:08:19.699Z,94005.77
2022-08-25T11:09:39.196Z,94002.39
2022-08-25T11:11:10.892Z,93997.80
2022-08-25T11:12:59.235Z,93992.98
2022-08-25T11:16:19.889Z,93986.35
2022-08-25T11:18:15.027Z,93984.58
2022-08-25T11:19:31.055Z,93983.50
2022-08-25T11:20:48.826Z,93982.70
2022-08-25T11:22:19.348Z,93976.93
2022-08-25T11:23:38.479Z,93978.17
2022-08-25T11:25:04.300Z,93977.71
2022-08-25T11:26:40.742Z,93978.18
2022-08-25T11:28:06.872Z,93981.95
2022-08-25T11:30:43.293Z,93981.08
2022-08-25T11:32:09.120Z,93978.33
2022-08-25T11:33:40.242Z,93984.15
2022-08-25T11:34:51.091Z,93977.34
2022-08-25T11:36:07.242Z,93977.26
2022-08-25T11:37:29.546Z,93973.17
2022-08-25T11:39:27.278Z,93977.70
2022-08-25T11:41:04.099Z,93979.30
2022-08-25T11:43:21.906Z,93982.05
2022-08-25T11:45:24.840Z,93983.88
2022-08-25T11:46:51.642Z,93989.80
2022-08-25T11:48:23.321Z,93988.61
2022-08-25T11:49:48.594Z,93984.06
2022-08-25T11:51:07.655Z,93983.70
2022-08-25T11:52:35.797Z,93981.02
2022-08-25T11:53:45.371Z,93981.33
2022-08-25T11:54:48.737Z,93985.01
2022-08-25T11:55:56.649Z,93979.09
2022-08-25T11:57:14.120Z,93980.75
2022-08-25T11:58:31.980Z,93979.69
2022-08-25T11:59:52.040Z,93982.16
2022-08-25T12:00:58.958Z,93978.89
2022-08-25T12:02:04.778Z,93977.58
2022-08-25T12:03:45.366Z,93979.71
2022-08-25T12:04:49.162Z,93979.00
2022-08-25T12:06:32.248Z,93976.05
2022-08-25T12:08:12.730Z,93975.38
2022-08-25T12:09:20.718Z,93972.48
2022-08-25T12:10:47.425Z,93969.70
2022-08-25T12:11:56.026Z,93969.84
2022-08-25T12:13:45.516Z,93967.94
2022-08-25T12:15:34.610Z,93974.57
2022-08-25T12:17:27.188Z,93971.84
2022-08-25T12:18:45.988Z,93969.91
2022-08-25T12:19:57.603Z,93971.45
2022-08-25T12:21:02.558Z,93966.04
2022-08-25T12:22:10.592Z,93965.67
2022-08-25T12:23:16.612Z,93964.77
2022-08-25T12:24:26.392Z,93963.70
2022-08-25T12:25:45.868Z,93960.41
2022-08-25T12:26:57.677Z,93960.23
2022-08-25T12:28:34.985Z,93957.73
2022-08-25T12:29:54.290Z,93958.96
2022-08-25T12:31:09.759Z,93961.46
2022-08-25T12:32:21.696Z,93958.10
2022-08-25T12:33:48.233Z,93961.89
2022-08-25T12:34:59.476Z,93961.55
2022-08-25T12:36:11.146Z,93960.47
2022-08-25T12:37:20.346Z,93958.38
2022-08-25T12:38:46.269Z,93955.96
2022-08-25T12:40:06.424Z,93957.66
2022-08-25T12:41:33.786Z,93957.49
2022-08-25T12:42:44.926Z,93951.98
2022-08-25T12:43:52.252Z,93952.70
2022-08-25T12:45:08.838Z,93951.46
2022-08-25T12:46:32.190Z,93949.31
2022-08-25T12:47:38.398Z,93950.36
2022-08-25T12:48:57.687Z,93945.25
2022-08-25T12:50:29.119Z,93945.02
2022-08-25T12:52:01.132Z,93947.21
2022-08-25T12:53:16.087Z,93941.34
2022-08-25T12:54:47.905Z,93942.48
2022-08-25T12:56:07.840Z,93938.47
2022-08-25T12:57:29.966Z,93938.02
2022-08-25T12:59:00.772Z,93938.59
2022-08-25T13:00:20.086Z,93936.39
2022-08-25T13:01:49.302Z,93930.52
2022-08-25T13:03:21.879Z,93934.05
2022-08-25T13:04:47.438Z,93932.98
2022-08-25T13:06:28.628Z,93931.06
2022-08-25T13:08:02.443Z,93930.80
2022-08-25T13:09:50.357Z,93931.02
2022-08-25T13:11:16.680Z,93926.25
2022-08-25T13:12:46.709Z,93929.61
2022-08-25T13:13:59.521Z,93928.05
2022-08-25T13:15:03.652Z,93928.30
2022-08-25T13:16:19.410Z,93928.17
2022-08-25T13:17:30.761Z,93925.92
2022-08-25T13:18:39.888Z,93922.54
2022-08-25T13:19:50.121Z,93923.71
2022-08-25T13:21:18.081Z,93922.11
2022-08-25T13:22:24.174Z,93920.52
2022-08-25T13:23:31.185Z,93919.86
2022-08-25T13:24:41.207Z,93918.29
2022-08-25T13:25:54.283Z,93918.84
2022-08-25T13:27:09.838Z,93918.30
2022-08-25T13:28:26.480Z,93916.13
2022-08-25T13:29:37.437Z,93912.02
2022-08-25T13:30:46.628Z,93912.98
2022-08-25T13:31:58.019Z,93912.00
2022-08-25T13:33:20.722Z,93907.65
2022-08-25T13:34:35.244Z,93908.73
2022-08-25T13:35:39.873Z,93905.73
2022-08-25T13:37:05.844Z,93904.42
2022-08-25T13:38:19.912Z,93903.81
2022-08-25T13:39:45.461Z,93901.48
2022-08-25T13:40:50.791Z,93899.77
2022-08-25T13:41:59.845Z,93903.29
2022-08-25T13:43:12.246Z,93898.11
2022-08-25T13:44:18.849Z,93893.38
2022-08-25T13:45:41.563Z,93893.14
2022-08-25T13:46:48.650Z,93898.84
2022-08-25T13:48:07.553Z,93894.33
2022-08-25T13:49:27.811Z,93893.05
2022-08-25T13:50:42.663Z,93890.13
2022-08-25T13:51:56.338Z,93886.34
2022-08-25T13:53:06.681Z,93890.70
2022-08-25T13:54:27.961Z,93889.59
2022-08-25T13:55:51.756Z,93886.70
2022-08-25T13:57:07.414Z,93887.90
2022-08-25T13:58:24.438Z,93888.99
2022-08-25T13:59:40.324Z,93890.27
2022-08-25T14:00:47.475Z,93891.48
2022-08-25T14:01:54.356Z,93889.45
2022-08-25T14:03:02.258Z,93895.21
2022-08-25T14:04:32.975Z,93890.56
2022-08-25T14:05:46.655Z,93890.34
2022-08-25T14:07:08.382Z,93887.38
2022-08-25T14:08:34.390Z,93879.48
2022-08-25T14:09:56.997Z,93882.10
2022-08-25T14:11:31.658Z,93881.73
2022-08-25T14:12:44.901Z,93881.35
2022-08-25T14:14:01.981Z,93879.38
2022-08-25T14:15:33.938Z,93883.11
2022-08-25T14:17:22.381Z,93882.16
2022-08-25T14:18:35.651Z,93876.11
2022-08-25T14:20:01.009Z,93877.95
2022-08-25T14:21:11.285Z,93874.95
2022-08-25T14:22:19.518Z,93875.78
2022-08-25T14:23:29.135Z,93869.86
2022-08-25T14:24:40.681Z,93868.60
2022-08-25T14:25:51.212Z,93868.47
2022-08-25T14:26:55.485Z,93869.20
2022-08-25T14:28:07.224Z,93865.17
2022-08-25T14:29:14.061Z,93861.34
2022-08-25T14:30:29.064Z,93863.06
2022-08-25T14:31:39.801Z,93860.30
2022-08-25T14:32:43.767Z,93862.00
2022-08-25T14:33:54.153Z,93860.14
2022-08-25T14:35:07.420Z,93858.77
2022-08-25T14:36:21.445Z,93861.64
2022-08-25T14:37:26.413Z,93853.52
2022-08-25T14:38:30.542Z,93853.77
2022-08-25T14:39:34.334Z,93853.89
2022-08-25T14:40:40.191Z,93851.63
2022-08-25T14:41:53.285Z,93849.05
2022-08-25T14:43:00.321Z,93850.02
2022-08-25T14:44:07.872Z,93845.40
2022-08-25T14:45:16.558Z,93842.89
2022-08-25T14:46:30.305Z,93844.94
2022-08-25T14:47:35.664Z,93840.30
2022-08-25T14:48:50.116Z,93845.08
2022-08-25T14:49:54.751Z,93846.15
2022-08-25T14:51:08.627Z,93846.46
2022-08-25T14:52:43.046Z,93844.09
2022-08-25T14:53:48.456Z,93847.14
2022-08-25T14:54:52.221Z,93843.52
2022-08-25T14:55:59.672Z,93836.91
2022-08-25T14:57:11.428Z,93838.77
2022-08-25T14:58:15.557Z,93839.96
2022-08-25T14:59:21.249Z,93835.14
2022-08-25T15:00:26.110Z,93835.45
2022-08-25T15:01:30.353Z,93833.86
2022-08-25T15:02:39.405Z,93833.96
2022-08-25T15:03:47.548Z,93833.15
2022-08-25T15:04:54.546Z,93838.02
2022-08-25T15:06:00.892Z,93834.29
2022-08-25T15:07:25.392Z,93837.38
2022-08-25T15:08:50.101Z,93835.52
2022-08-25T15:09:53.511Z,93833.57
2022-08-25T15:10:58.312Z,93834.52
2022-08-25T15:12:01.728Z,93836.48
2022-08-25T15:13:07.140Z,93830.80
2022-08-25T15:14:12.811Z,93826.98
2022-08-25T15:15:19.015Z,93825.32